sensor_id;sensor_type;location;lat;lon;timestamp;P1;durP1;ratioP1;P2;durP2;ratioP2
57085;SDS011;42964;42.910;23.792;2023-03-19T00:00:42;82.15;;;45.30;;
57085;SDS011;42964;42.910;23.792;2023-03-19T00:05:41;69.25;;;42.65;;
57085;SDS011;42964;42.910;23.792;2023-03-19T00:10:48;69.15;;;39.97;;
57085;SDS011;42964;42.910;23.792;2023-03-19T00:15:48;54.80;;;32.45;;
57085;SDS011;42964;42.910;23.792;2023-03-19T00:20:47;54.47;;;33.28;;
57085;SDS011;42964;42.910;23.792;2023-03-19T00:25:46;54.15;;;32.53;;
57085;SDS011;42964;42.910;23.792;2023-03-19T00:30:45;49.53;;;26.92;;
57085;SDS011;42964;42.910;23.792;2023-03-19T00:35:44;53.80;;;31.10;;
57085;SDS011;42964;42.910;23.792;2023-03-19T00:40:43;54.00;;;32.88;;
57085;SDS011;42964;42.910;23.792;2023-03-19T00:45:42;58.25;;;34.83;;
57085;SDS011;42964;42.910;23.792;2023-03-19T00:50:41;79.97;;;50.40;;
57085;SDS011;42964;42.910;23.792;2023-03-19T00:55:40;55.53;;;33.42;;
57085;SDS011;42964;42.910;23.792;2023-03-19T01:00:40;47.20;;;27.15;;
57085;SDS011;42964;42.910;23.792;2023-03-19T01:05:39;66.32;;;38.97;;
57085;SDS011;42964;42.910;23.792;2023-03-19T01:10:38;75.38;;;41.08;;
57085;SDS011;42964;42.910;23.792;2023-03-19T01:15:38;79.78;;;43.45;;
57085;SDS011;42964;42.910;23.792;2023-03-19T01:20:39;52.67;;;31.42;;
57085;SDS011;42964;42.910;23.792;2023-03-19T01:25:39;66.55;;;35.83;;
57085;SDS011;42964;42.910;23.792;2023-03-19T01:30:39;60.55;;;33.83;;
57085;SDS011;42964;42.910;23.792;2023-03-19T01:35:38;56.80;;;31.50;;
57085;SDS011;42964;42.910;23.792;2023-03-19T01:40:42;51.90;;;32.03;;
57085;SDS011;42964;42.910;23.792;2023-03-19T01:45:45;61.45;;;33.00;;
57085;SDS011;42964;42.910;23.792;2023-03-19T01:50:44;51.08;;;27.25;;
57085;SDS011;42964;42.910;23.792;2023-03-19T01:55:47;44.30;;;24.85;;
57085;SDS011;42964;42.910;23.792;2023-03-19T02:00:48;40.47;;;23.95;;
57085;SDS011;42964;42.910;23.792;2023-03-19T02:05:47;37.33;;;23.25;;
57085;SDS011;42964;42.910;23.792;2023-03-19T02:10:48;83.07;;;51.92;;
57085;SDS011;42964;42.910;23.792;2023-03-19T02:15:49;76.25;;;47.75;;
57085;SDS011;42964;42.910;23.792;2023-03-19T02:20:57;44.83;;;28.30;;
57085;SDS011;42964;42.910;23.792;2023-03-19T02:26:10;50.38;;;28.58;;
57085;SDS011;42964;42.910;23.792;2023-03-19T02:31:12;49.95;;;28.48;;
57085;SDS011;42964;42.910;23.792;2023-03-19T02:36:13;54.85;;;31.33;;
57085;SDS011;42964;42.910;23.792;2023-03-19T02:41:15;63.78;;;35.05;;
57085;SDS011;42964;42.910;23.792;2023-03-19T02:46:15;42.67;;;23.42;;
57085;SDS011;42964;42.910;23.792;2023-03-19T02:51:14;39.15;;;21.92;;
57085;SDS011;42964;42.910;23.792;2023-03-19T02:56:13;52.05;;;26.15;;
57085;SDS011;42964;42.910;23.792;2023-03-19T03:01:12;45.13;;;25.40;;
57085;SDS011;42964;42.910;23.792;2023-03-19T03:06:11;28.98;;;18.45;;
57085;SDS011;42964;42.910;23.792;2023-03-19T03:11:11;33.05;;;17.23;;
57085;SDS011;42964;42.910;23.792;2023-03-19T03:16:10;29.02;;;17.50;;
57085;SDS011;42964;42.910;23.792;2023-03-19T03:21:10;33.78;;;18.42;;
57085;SDS011;42964;42.910;23.792;2023-03-19T03:26:09;34.40;;;19.65;;
57085;SDS011;42964;42.910;23.792;2023-03-19T03:31:08;30.75;;;17.80;;
57085;SDS011;42964;42.910;23.792;2023-03-19T03:36:07;30.70;;;18.77;;
57085;SDS011;42964;42.910;23.792;2023-03-19T03:41:06;30.08;;;19.02;;
57085;SDS011;42964;42.910;23.792;2023-03-19T03:46:05;38.22;;;22.33;;
57085;SDS011;42964;42.910;23.792;2023-03-19T03:51:06;52.47;;;32.10;;
57085;SDS011;42964;42.910;23.792;2023-03-19T03:56:05;48.65;;;29.00;;
57085;SDS011;42964;42.910;23.792;2023-03-19T04:01:04;47.95;;;27.90;;
57085;SDS011;42964;42.910;23.792;2023-03-19T04:06:04;41.47;;;23.65;;
57085;SDS011;42964;42.910;23.792;2023-03-19T04:11:06;40.92;;;24.23;;
57085;SDS011;42964;42.910;23.792;2023-03-19T04:16:06;45.42;;;21.00;;
57085;SDS011;42964;42.910;23.792;2023-03-19T04:21:10;35.67;;;21.25;;
57085;SDS011;42964;42.910;23.792;2023-03-19T04:26:09;39.88;;;21.40;;
57085;SDS011;42964;42.910;23.792;2023-03-19T04:31:08;36.22;;;20.70;;
57085;SDS011;42964;42.910;23.792;2023-03-19T04:36:08;48.72;;;26.48;;
57085;SDS011;42964;42.910;23.792;2023-03-19T04:41:07;44.42;;;26.23;;
57085;SDS011;42964;42.910;23.792;2023-03-19T04:46:06;44.60;;;25.13;;
57085;SDS011;42964;42.910;23.792;2023-03-19T04:51:05;62.70;;;25.40;;
57085;SDS011;42964;42.910;23.792;2023-03-19T04:56:06;46.40;;;25.55;;
57085;SDS011;42964;42.910;23.792;2023-03-19T05:01:06;47.80;;;24.65;;
57085;SDS011;42964;42.910;23.792;2023-03-19T05:06:05;41.20;;;25.00;;
57085;SDS011;42964;42.910;23.792;2023-03-19T05:16:03;36.17;;;21.30;;
57085;SDS011;42964;42.910;23.792;2023-03-19T05:21:02;29.80;;;20.38;;
57085;SDS011;42964;42.910;23.792;2023-03-19T05:26:02;34.22;;;21.48;;
57085;SDS011;42964;42.910;23.792;2023-03-19T05:31:02;35.90;;;21.92;;
57085;SDS011;42964;42.910;23.792;2023-03-19T05:36:02;39.22;;;23.77;;
57085;SDS011;42964;42.910;23.792;2023-03-19T05:41:03;38.75;;;25.00;;
57085;SDS011;42964;42.910;23.792;2023-03-19T05:46:02;40.83;;;25.05;;
57085;SDS011;42964;42.910;23.792;2023-03-19T05:56:00;38.90;;;24.83;;
57085;SDS011;42964;42.910;23.792;2023-03-19T06:00:59;37.50;;;24.33;;
57085;SDS011;42964;42.910;23.792;2023-03-19T06:05:59;37.47;;;24.85;;
57085;SDS011;42964;42.910;23.792;2023-03-19T06:10:58;41.92;;;25.88;;
57085;SDS011;42964;42.910;23.792;2023-03-19T06:15:57;51.00;;;32.70;;
57085;SDS011;42964;42.910;23.792;2023-03-19T06:20:56;83.07;;;49.88;;
57085;SDS011;42964;42.910;23.792;2023-03-19T06:25:55;76.28;;;47.25;;
57085;SDS011;42964;42.910;23.792;2023-03-19T06:30:54;56.17;;;36.33;;
57085;SDS011;42964;42.910;23.792;2023-03-19T06:35:53;38.22;;;25.23;;
57085;SDS011;42964;42.910;23.792;2023-03-19T06:40:52;37.88;;;23.27;;
57085;SDS011;42964;42.910;23.792;2023-03-19T06:45:51;34.55;;;21.63;;
57085;SDS011;42964;42.910;23.792;2023-03-19T06:50:50;37.75;;;24.25;;
57085;SDS011;42964;42.910;23.792;2023-03-19T06:55:49;35.85;;;21.63;;
57085;SDS011;42964;42.910;23.792;2023-03-19T07:00:48;33.95;;;21.05;;
57085;SDS011;42964;42.910;23.792;2023-03-19T07:05:49;38.40;;;25.05;;
57085;SDS011;42964;42.910;23.792;2023-03-19T07:10:49;52.60;;;37.38;;
57085;SDS011;42964;42.910;23.792;2023-03-19T07:15:48;36.70;;;23.42;;
57085;SDS011;42964;42.910;23.792;2023-03-19T07:20:47;21.45;;;12.05;;
57085;SDS011;42964;42.910;23.792;2023-03-19T07:25:46;18.30;;;11.65;;
57085;SDS011;42964;42.910;23.792;2023-03-19T07:35:43;23.35;;;12.32;;
57085;SDS011;42964;42.910;23.792;2023-03-19T07:40:42;14.32;;;7.88;;
57085;SDS011;42964;42.910;23.792;2023-03-19T07:45:41;15.85;;;8.50;;
57085;SDS011;42964;42.910;23.792;2023-03-19T07:50:40;10.80;;;6.85;;
57085;SDS011;42964;42.910;23.792;2023-03-19T07:55:39;10.45;;;6.53;;
57085;SDS011;42964;42.910;23.792;2023-03-19T08:00:38;12.30;;;7.70;;
57085;SDS011;42964;42.910;23.792;2023-03-19T08:10:36;16.40;;;8.88;;
57085;SDS011;42964;42.910;23.792;2023-03-19T08:15:36;15.80;;;9.93;;
57085;SDS011;42964;42.910;23.792;2023-03-19T08:20:34;14.90;;;9.50;;
57085;SDS011;42964;42.910;23.792;2023-03-19T08:25:34;15.70;;;9.88;;
57085;SDS011;42964;42.910;23.792;2023-03-19T08:30:33;15.93;;;10.63;;
57085;SDS011;42964;42.910;23.792;2023-03-19T08:35:32;16.50;;;9.52;;
57085;SDS011;42964;42.910;23.792;2023-03-19T08:40:31;17.88;;;11.40;;
57085;SDS011;42964;42.910;23.792;2023-03-19T08:45:30;20.27;;;12.90;;
57085;SDS011;42964;42.910;23.792;2023-03-19T08:50:29;18.23;;;11.35;;
57085;SDS011;42964;42.910;23.792;2023-03-19T08:55:28;17.73;;;11.75;;
57085;SDS011;42964;42.910;23.792;2023-03-19T09:00:27;12.98;;;8.48;;
57085;SDS011;42964;42.910;23.792;2023-03-19T09:05:26;15.02;;;8.25;;
57085;SDS011;42964;42.910;23.792;2023-03-19T09:10:25;13.02;;;6.55;;
57085;SDS011;42964;42.910;23.792;2023-03-19T09:15:24;9.80;;;6.22;;
57085;SDS011;42964;42.910;23.792;2023-03-19T09:20:23;9.95;;;5.28;;
57085;SDS011;42964;42.910;23.792;2023-03-19T09:25:22;9.15;;;5.28;;
57085;SDS011;42964;42.910;23.792;2023-03-19T09:30:21;10.07;;;5.82;;
57085;SDS011;42964;42.910;23.792;2023-03-19T09:35:20;6.20;;;4.22;;
57085;SDS011;42964;42.910;23.792;2023-03-19T09:40:21;11.73;;;6.60;;
57085;SDS011;42964;42.910;23.792;2023-03-19T09:45:26;6.57;;;4.30;;
57085;SDS011;42964;42.910;23.792;2023-03-19T09:50:27;7.95;;;4.35;;
57085;SDS011;42964;42.910;23.792;2023-03-19T09:55:34;11.65;;;6.53;;
57085;SDS011;42964;42.910;23.792;2023-03-19T10:00:43;6.65;;;4.45;;
57085;SDS011;42964;42.910;23.792;2023-03-19T10:11:22;11.50;;;4.63;;
57085;SDS011;42964;42.910;23.792;2023-03-19T10:16:23;8.05;;;4.63;;
57085;SDS011;42964;42.910;23.792;2023-03-19T10:26:33;8.13;;;4.60;;
57085;SDS011;42964;42.910;23.792;2023-03-19T10:31:39;9.35;;;5.18;;
57085;SDS011;42964;42.910;23.792;2023-03-19T10:36:42;9.27;;;6.13;;
57085;SDS011;42964;42.910;23.792;2023-03-19T10:46:45;6.20;;;4.05;;
57085;SDS011;42964;42.910;23.792;2023-03-19T10:56:46;6.27;;;3.77;;
57085;SDS011;42964;42.910;23.792;2023-03-19T11:01:45;6.15;;;3.50;;
57085;SDS011;42964;42.910;23.792;2023-03-19T11:11:48;5.10;;;2.72;;
57085;SDS011;42964;42.910;23.792;2023-03-19T11:27:13;2.47;;;2.15;;
57085;SDS011;42964;42.910;23.792;2023-03-19T11:47:49;4.25;;;2.17;;
57085;SDS011;42964;42.910;23.792;2023-03-19T12:09:03;2.22;;;1.83;;
57085;SDS011;42964;42.910;23.792;2023-03-19T12:35:42;3.63;;;1.83;;
57085;SDS011;42964;42.910;23.792;2023-03-19T12:40:51;3.13;;;1.45;;
57085;SDS011;42964;42.910;23.792;2023-03-19T12:46:08;2.00;;;1.60;;
57085;SDS011;42964;42.910;23.792;2023-03-19T12:51:11;4.07;;;1.85;;
57085;SDS011;42964;42.910;23.792;2023-03-19T12:56:17;1.65;;;1.42;;
57085;SDS011;42964;42.910;23.792;2023-03-19T13:01:32;5.00;;;1.73;;
57085;SDS011;42964;42.910;23.792;2023-03-19T13:06:37;4.53;;;1.92;;
57085;SDS011;42964;42.910;23.792;2023-03-19T13:12:00;2.22;;;2.00;;
57085;SDS011;42964;42.910;23.792;2023-03-19T13:17:12;2.10;;;1.60;;
57085;SDS011;42964;42.910;23.792;2023-03-19T13:22:29;1.90;;;1.70;;
57085;SDS011;42964;42.910;23.792;2023-03-19T13:27:33;32.65;;;3.63;;
57085;SDS011;42964;42.910;23.792;2023-03-19T13:37:36;6.05;;;2.00;;
57085;SDS011;42964;42.910;23.792;2023-03-19T13:42:40;4.38;;;2.17;;
57085;SDS011;42964;42.910;23.792;2023-03-19T13:47:40;4.20;;;2.17;;
57085;SDS011;42964;42.910;23.792;2023-03-19T13:57:54;5.13;;;2.95;;
57085;SDS011;42964;42.910;23.792;2023-03-19T14:08:30;4.00;;;2.70;;
57085;SDS011;42964;42.910;23.792;2023-03-19T14:18:30;6.17;;;2.77;;
57085;SDS011;42964;42.910;23.792;2023-03-19T14:23:29;3.85;;;2.47;;
57085;SDS011;42964;42.910;23.792;2023-03-19T14:33:58;5.57;;;3.22;;
57085;SDS011;42964;42.910;23.792;2023-03-19T14:55:34;6.85;;;3.08;;
57085;SDS011;42964;42.910;23.792;2023-03-19T15:01:08;6.50;;;3.50;;
57085;SDS011;42964;42.910;23.792;2023-03-19T15:06:04;12.23;;;5.88;;
57085;SDS011;42964;42.910;23.792;2023-03-19T15:16:25;7.28;;;4.03;;
57085;SDS011;42964;42.910;23.792;2023-03-19T15:21:30;5.50;;;3.57;;
57085;SDS011;42964;42.910;23.792;2023-03-19T15:26:30;5.68;;;3.42;;
57085;SDS011;42964;42.910;23.792;2023-03-19T15:31:43;7.15;;;4.40;;
57085;SDS011;42964;42.910;23.792;2023-03-19T15:36:43;17.50;;;9.52;;
57085;SDS011;42964;42.910;23.792;2023-03-19T15:41:45;10.45;;;6.70;;
57085;SDS011;42964;42.910;23.792;2023-03-19T15:46:46;10.40;;;6.28;;
57085;SDS011;42964;42.910;23.792;2023-03-19T15:51:48;12.43;;;6.75;;
57085;SDS011;42964;42.910;23.792;2023-03-19T15:56:51;13.75;;;7.38;;
57085;SDS011;42964;42.910;23.792;2023-03-19T16:01:51;19.25;;;11.13;;
57085;SDS011;42964;42.910;23.792;2023-03-19T16:06:50;13.63;;;8.18;;
57085;SDS011;42964;42.910;23.792;2023-03-19T16:11:49;15.52;;;6.97;;
57085;SDS011;42964;42.910;23.792;2023-03-19T16:16:49;11.00;;;6.45;;
57085;SDS011;42964;42.910;23.792;2023-03-19T16:21:50;15.65;;;9.73;;
57085;SDS011;42964;42.910;23.792;2023-03-19T16:26:49;14.85;;;8.63;;
57085;SDS011;42964;42.910;23.792;2023-03-19T16:31:50;15.57;;;9.48;;
57085;SDS011;42964;42.910;23.792;2023-03-19T16:36:51;21.75;;;13.30;;
57085;SDS011;42964;42.910;23.792;2023-03-19T16:47:09;19.35;;;11.68;;
57085;SDS011;42964;42.910;23.792;2023-03-19T16:52:13;17.10;;;10.07;;
57085;SDS011;42964;42.910;23.792;2023-03-19T16:57:17;27.55;;;13.98;;
57085;SDS011;42964;42.910;23.792;2023-03-19T17:02:17;22.02;;;14.40;;
57085;SDS011;42964;42.910;23.792;2023-03-19T17:07:16;26.27;;;18.23;;
57085;SDS011;42964;42.910;23.792;2023-03-19T17:17:16;26.17;;;20.05;;
57085;SDS011;42964;42.910;23.792;2023-03-19T17:22:17;34.03;;;19.88;;
57085;SDS011;42964;42.910;23.792;2023-03-19T17:32:16;31.20;;;20.38;;
57085;SDS011;42964;42.910;23.792;2023-03-19T17:37:17;24.77;;;17.08;;
57085;SDS011;42964;42.910;23.792;2023-03-19T17:47:21;19.02;;;14.30;;
57085;SDS011;42964;42.910;23.792;2023-03-19T17:57:20;27.05;;;17.38;;
57085;SDS011;42964;42.910;23.792;2023-03-19T18:07:24;32.42;;;17.70;;
57085;SDS011;42964;42.910;23.792;2023-03-19T18:12:23;52.10;;;30.73;;
57085;SDS011;42964;42.910;23.792;2023-03-19T18:17:22;42.60;;;25.27;;
57085;SDS011;42964;42.910;23.792;2023-03-19T18:22:21;45.72;;;31.00;;
57085;SDS011;42964;42.910;23.792;2023-03-19T18:27:20;55.47;;;35.33;;
57085;SDS011;42964;42.910;23.792;2023-03-19T18:32:24;54.10;;;30.77;;
57085;SDS011;42964;42.910;23.792;2023-03-19T18:37:27;52.28;;;31.95;;
57085;SDS011;42964;42.910;23.792;2023-03-19T18:42:29;43.00;;;25.00;;
57085;SDS011;42964;42.910;23.792;2023-03-19T18:47:28;36.28;;;23.90;;
57085;SDS011;42964;42.910;23.792;2023-03-19T18:52:27;47.00;;;30.48;;
57085;SDS011;42964;42.910;23.792;2023-03-19T18:57:25;48.03;;;29.77;;
57085;SDS011;42964;42.910;23.792;2023-03-19T19:02:31;43.58;;;28.92;;
57085;SDS011;42964;42.910;23.792;2023-03-19T19:07:32;259.02;;;158.88;;
57085;SDS011;42964;42.910;23.792;2023-03-19T19:12:31;150.57;;;90.75;;
57085;SDS011;42964;42.910;23.792;2023-03-19T19:17:30;48.90;;;30.45;;
57085;SDS011;42964;42.910;23.792;2023-03-19T19:22:30;57.13;;;35.60;;
57085;SDS011;42964;42.910;23.792;2023-03-19T19:27:29;150.50;;;89.38;;
57085;SDS011;42964;42.910;23.792;2023-03-19T19:32:28;74.22;;;48.10;;
57085;SDS011;42964;42.910;23.792;2023-03-19T19:37:28;82.15;;;52.42;;
57085;SDS011;42964;42.910;23.792;2023-03-19T19:42:27;75.95;;;50.03;;
57085;SDS011;42964;42.910;23.792;2023-03-19T19:47:27;67.18;;;41.45;;
57085;SDS011;42964;42.910;23.792;2023-03-19T19:52:26;55.92;;;36.10;;
57085;SDS011;42964;42.910;23.792;2023-03-19T19:57:25;96.85;;;56.47;;
57085;SDS011;42964;42.910;23.792;2023-03-19T20:07:26;82.53;;;46.95;;
57085;SDS011;42964;42.910;23.792;2023-03-19T20:12:27;76.43;;;45.40;;
57085;SDS011;42964;42.910;23.792;2023-03-19T20:17:30;73.32;;;45.75;;
57085;SDS011;42964;42.910;23.792;2023-03-19T20:22:29;80.38;;;50.47;;
57085;SDS011;42964;42.910;23.792;2023-03-19T20:27:29;92.63;;;59.97;;
57085;SDS011;42964;42.910;23.792;2023-03-19T20:32:34;97.00;;;60.08;;
57085;SDS011;42964;42.910;23.792;2023-03-19T20:37:36;91.78;;;57.65;;
57085;SDS011;42964;42.910;23.792;2023-03-19T20:42:35;86.55;;;53.55;;
57085;SDS011;42964;42.910;23.792;2023-03-19T20:47:34;73.28;;;37.78;;
57085;SDS011;42964;42.910;23.792;2023-03-19T20:57:32;85.35;;;50.38;;
57085;SDS011;42964;42.910;23.792;2023-03-19T21:02:31;87.22;;;53.88;;
57085;SDS011;42964;42.910;23.792;2023-03-19T21:07:30;89.30;;;52.55;;
57085;SDS011;42964;42.910;23.792;2023-03-19T21:12:32;98.97;;;56.90;;
57085;SDS011;42964;42.910;23.792;2023-03-19T21:17:33;87.93;;;54.15;;
57085;SDS011;42964;42.910;23.792;2023-03-19T21:22:32;88.15;;;54.97;;
57085;SDS011;42964;42.910;23.792;2023-03-19T21:27:32;88.10;;;54.65;;
57085;SDS011;42964;42.910;23.792;2023-03-19T21:32:34;84.93;;;50.15;;
57085;SDS011;42964;42.910;23.792;2023-03-19T21:37:33;69.57;;;43.47;;
57085;SDS011;42964;42.910;23.792;2023-03-19T21:42:32;67.85;;;39.90;;
57085;SDS011;42964;42.910;23.792;2023-03-19T21:47:31;65.95;;;36.17;;
57085;SDS011;42964;42.910;23.792;2023-03-19T21:52:30;56.50;;;32.78;;
57085;SDS011;42964;42.910;23.792;2023-03-19T21:57:29;54.10;;;34.38;;
57085;SDS011;42964;42.910;23.792;2023-03-19T22:02:36;61.22;;;36.88;;
57085;SDS011;42964;42.910;23.792;2023-03-19T22:07:37;57.53;;;35.92;;
57085;SDS011;42964;42.910;23.792;2023-03-19T22:12:36;92.20;;;54.47;;
57085;SDS011;42964;42.910;23.792;2023-03-19T22:17:35;57.33;;;36.45;;
57085;SDS011;42964;42.910;23.792;2023-03-19T22:22:34;61.05;;;40.90;;
57085;SDS011;42964;42.910;23.792;2023-03-19T22:27:33;42.88;;;30.10;;
57085;SDS011;42964;42.910;23.792;2023-03-19T22:32:32;42.65;;;27.70;;
57085;SDS011;42964;42.910;23.792;2023-03-19T22:37:31;30.17;;;19.15;;
57085;SDS011;42964;42.910;23.792;2023-03-19T22:42:30;26.42;;;17.10;;
57085;SDS011;42964;42.910;23.792;2023-03-19T22:47:29;28.65;;;18.90;;
57085;SDS011;42964;42.910;23.792;2023-03-19T22:52:33;27.77;;;17.75;;
57085;SDS011;42964;42.910;23.792;2023-03-19T22:57:32;28.83;;;17.17;;
57085;SDS011;42964;42.910;23.792;2023-03-19T23:02:30;30.55;;;17.42;;
57085;SDS011;42964;42.910;23.792;2023-03-19T23:07:29;28.73;;;17.08;;
57085;SDS011;42964;42.910;23.792;2023-03-19T23:12:28;25.90;;;16.70;;
57085;SDS011;42964;42.910;23.792;2023-03-19T23:17:28;31.00;;;20.42;;
57085;SDS011;42964;42.910;23.792;2023-03-19T23:22:27;26.40;;;17.30;;
57085;SDS011;42964;42.910;23.792;2023-03-19T23:27:26;29.35;;;18.90;;
57085;SDS011;42964;42.910;23.792;2023-03-19T23:32:25;27.55;;;18.42;;
57085;SDS011;42964;42.910;23.792;2023-03-19T23:37:24;28.92;;;18.67;;
57085;SDS011;42964;42.910;23.792;2023-03-19T23:47:26;31.60;;;20.48;;
57085;SDS011;42964;42.910;23.792;2023-03-19T23:52:27;44.13;;;26.92;;
57085;SDS011;42964;42.910;23.792;2023-03-19T23:57:26;53.25;;;32.25;;
